Durham, NC

2:40 PM EDT on October 31, 2014 (GMT -0400)
Trinity Park | Change Station
CLOSE
Current Station
Personal Weather Station
Location: Durham, NC
Elevation: 400 ft
Nearby Weather Stations

Elev 400 ft 36.01 °N, 78.91 °W | Updated 12 seconds ago

Overcast
Overcast
59.8 °F
Feels Like 59.8 °F
N
0.0
Wind Variable Wind from SSE
Gusts 0.0 mph

Today
High -- | Low -- °F
--% Chance of Precip.
Yesterday
High -- | Low -- °F
Precip. -- in
7:37 AM 6:20 PM
First Quarter, 57% visible
Pressure 29.87 in
Visibility 10.0 miles
Clouds Scattered Clouds 4000 ft
Scattered Clouds 20000 ft
Mostly Cloudy 25000 ft
Dew Point 46 °F
Humidity 60%
Rainfall 0.00 in
Snow Depth Not available.
UV 3 out of 12
Pollen .10 out of 12
Air Quality Not available.
Flu Activity Not available.
METAR KRDU 311751Z 00000KT 10SM SCT040 SCT200 BKN250 15/05 A2987 RMK AO2 SLP113 T01500050 10167 20056 58027

More Conditions Fewer Conditions

Pressure 29.87 in
Visibility 10.0 miles
Clouds Scattered Clouds 4000 ft
Scattered Clouds 20000 ft
Mostly Cloudy 25000 ft
Dew Point 46 °F
Humidity 60%
Rainfall 0.00 in
Snow Depth Not available.
UV 3 out of 12
Pollen .10 out of 12
Air Quality Not available.
Flu Activity Not available.
METAR KRDU 311751Z 00000KT 10SM SCT040 SCT200 BKN250 15/05 A2987 RMK AO2 SLP113 T01500050 10167 20056 58027

More Conditions Fewer Conditions

10-Day Weather Forecast

Almanac

Astronomy

Oct. 31, 2014 Rise Set
Actual Time
Civil Twilight
Nautical Twilight
Astronomical Twilight
Moon
Length of Visible Light
Length of Day
Tomorrow will be .
, % of the Moon is Illuminated

Today's Extremes

State Highs State Lows

Community

WunderPhotos

Upload Photos

1,766,690 photos uploaded!

WunderBlogs® & News

Nearby

Air Quality

  Air Quality AQ Index Pollutant
Not available.

Snow Depth

Station Depth Elevation

Earthquake Activity

City Distance Mag. Time & Date
Minimum magnitude displayed is 2.5.

Coastal Water Temperatures

Place Temperature

Nearby Weather Stations